createdAt,value
2019-01-10T00:00:17.162Z,38.13
2019-01-10T00:02:49.915Z,38.53
2019-01-10T00:05:21.976Z,38.13
2019-01-10T00:07:53.566Z,39.70
2019-01-10T00:10:25.110Z,38.67
2019-01-10T00:12:56.936Z,39.03
2019-01-10T00:15:28.478Z,39.17
2019-01-10T00:17:59.913Z,39.13
2019-01-10T00:20:31.278Z,26.40
2019-01-10T00:23:08.168Z,35.47
2019-01-10T00:25:39.511Z,36.50
2019-01-10T00:28:11.207Z,33.77
2019-01-10T00:30:42.700Z,32.70
2019-01-10T00:33:14.431Z,29.77
2019-01-10T00:35:45.999Z,32.07
2019-01-10T00:38:17.431Z,35.87
2019-01-10T00:40:48.905Z,32.97
2019-01-10T00:43:21.423Z,33.37
2019-01-10T00:45:53.242Z,34.60
2019-01-10T00:48:24.568Z,34.50
2019-01-10T00:50:55.876Z,33.40
2019-01-10T00:53:27.460Z,34.67
2019-01-10T00:55:59.122Z,30.50
2019-01-10T00:58:30.385Z,30.90
2019-01-10T01:01:01.761Z,28.70
2019-01-10T01:03:33.313Z,34.40
2019-01-10T01:06:05.555Z,30.10
2019-01-10T01:08:36.923Z,29.93
2019-01-10T01:11:08.390Z,27.87
2019-01-10T01:13:39.969Z,32.87
2019-01-10T01:16:11.630Z,31.03
2019-01-10T01:18:43.493Z,31.03
2019-01-10T01:21:15.002Z,29.67
2019-01-10T01:23:48.272Z,34.77
2019-01-10T01:26:19.747Z,32.03
2019-01-10T01:28:51.456Z,36.47
2019-01-10T01:31:23.045Z,28.73
2019-01-10T01:33:59.940Z,30.13
2019-01-10T01:36:31.756Z,34.93
2019-01-10T01:39:05.302Z,32.73
2019-01-10T01:41:36.852Z,31.53
2019-01-10T01:44:08.611Z,34.43
2019-01-10T01:46:40.175Z,23.93
2019-01-10T01:49:11.798Z,29.67
2019-01-10T01:51:43.439Z,27.67
2019-01-10T01:54:15.221Z,29.90
2019-01-10T01:56:47.109Z,30.77
2019-01-10T01:59:18.625Z,29.50
2019-01-10T02:01:49.938Z,28.77
2019-01-10T02:04:21.870Z,28.63
2019-01-10T02:06:53.664Z,28.33
2019-01-10T02:09:25.435Z,28.23
2019-01-10T02:11:56.860Z,28.60
2019-01-10T02:14:28.768Z,29.47
2019-01-10T02:17:00.118Z,28.90
2019-01-10T02:19:31.550Z,28.40
2019-01-10T02:22:02.932Z,25.33
2019-01-10T02:24:34.315Z,28.47
2019-01-10T02:27:05.982Z,30.40
2019-01-10T02:29:38.367Z,24.73
2019-01-10T02:32:10.319Z,27.40
2019-01-10T02:34:41.873Z,27.17
2019-01-10T02:37:13.346Z,27.07
2019-01-10T02:39:45.241Z,23.93
2019-01-10T02:42:16.786Z,23.23
2019-01-10T02:44:48.589Z,23.33
2019-01-10T02:47:20.555Z,25.47
2019-01-10T02:49:52.091Z,23.50
2019-01-10T02:52:23.645Z,23.23
2019-01-10T02:54:56.002Z,22.87
2019-01-10T02:57:27.678Z,20.30
2019-01-10T02:59:59.288Z,20.17
2019-01-10T03:02:31.324Z,20.80
2019-01-10T03:05:02.579Z,21.50
2019-01-10T03:07:34.064Z,23.20
2019-01-10T03:10:08.269Z,22.50
2019-01-10T03:12:40.627Z,23.07
2019-01-10T03:15:12.021Z,26.77
2019-01-10T03:17:43.855Z,22.17
2019-01-10T03:20:17.582Z,22.37
2019-01-10T03:22:50.293Z,21.23
2019-01-10T03:25:21.573Z,22.67
2019-01-10T03:27:53.580Z,22.37
2019-01-10T03:30:26.877Z,21.73
2019-01-10T03:32:58.397Z,19.10
2019-01-10T03:35:30.252Z,19.60
2019-01-10T03:38:01.764Z,19.43
2019-01-10T03:40:33.236Z,19.27
2019-01-10T03:43:04.742Z,23.90
2019-01-10T03:45:36.416Z,17.80
2019-01-10T03:48:07.795Z,17.37
2019-01-10T03:50:39.178Z,17.43
2019-01-10T03:53:10.646Z,15.63
2019-01-10T03:55:41.941Z,17.53
2019-01-10T03:58:13.843Z,18.20
2019-01-10T04:00:45.644Z,19.43
2019-01-10T04:03:17.337Z,17.10
2019-01-10T04:05:48.706Z,16.23
2019-01-10T04:08:20.195Z,16.67
2019-01-10T04:10:52.541Z,17.60
2019-01-10T04:13:24.104Z,18.70
2019-01-10T04:15:55.519Z,18.50
2019-01-10T04:18:26.858Z,18.43
2019-01-10T04:20:58.209Z,18.90
2019-01-10T04:23:29.948Z,19.10
2019-01-10T04:26:01.655Z,25.30
2019-01-10T04:28:32.906Z,18.00
2019-01-10T04:31:04.262Z,19.17
2019-01-10T04:33:36.104Z,24.47
2019-01-10T04:36:07.469Z,22.47
2019-01-10T04:38:39.640Z,23.30
2019-01-10T04:41:11.006Z,21.03
2019-01-10T04:43:43.281Z,18.90
2019-01-10T04:46:14.773Z,22.37
2019-01-10T04:48:46.592Z,16.83
2019-01-10T04:51:18.176Z,20.57
2019-01-10T04:53:49.696Z,24.97
2019-01-10T04:56:20.972Z,26.20
2019-01-10T04:58:52.598Z,18.40
2019-01-10T05:01:23.874Z,22.20
2019-01-10T05:03:55.419Z,20.40
2019-01-10T05:06:26.985Z,22.30
2019-01-10T05:08:58.541Z,22.83
2019-01-10T05:11:30.005Z,24.50
2019-01-10T05:14:01.951Z,24.50
2019-01-10T05:16:33.347Z,26.70
2019-01-10T05:19:04.701Z,25.03
2019-01-10T05:21:36.313Z,24.10
2019-01-10T05:24:08.035Z,21.83
2019-01-10T05:26:39.315Z,19.63
2019-01-10T05:29:11.030Z,20.23
2019-01-10T05:31:42.601Z,23.10
2019-01-10T05:34:14.159Z,27.43
2019-01-10T05:36:45.729Z,27.57
2019-01-10T05:39:17.034Z,26.00
2019-01-10T05:41:48.601Z,25.77
2019-01-10T05:44:26.406Z,28.30
2019-01-10T05:46:53.458Z,26.93
2019-01-10T05:49:24.918Z,25.87
2019-01-10T05:51:56.260Z,26.27
2019-01-10T05:54:27.879Z,24.80
2019-01-10T05:56:59.262Z,26.20
2019-01-10T05:59:30.556Z,26.50
2019-01-10T06:02:02.006Z,21.63
2019-01-10T06:04:33.736Z,25.50
2019-01-10T06:07:05.458Z,28.77
2019-01-10T06:09:36.802Z,23.93
2019-01-10T06:12:08.435Z,26.93
2019-01-10T06:14:40.470Z,26.53
2019-01-10T06:17:12.268Z,25.93
2019-01-10T06:19:44.634Z,20.93
2019-01-10T06:22:16.088Z,25.97
2019-01-10T06:24:47.715Z,19.53
2019-01-10T06:27:19.215Z,26.77
2019-01-10T06:29:51.217Z,25.27
2019-01-10T06:32:23.022Z,24.87
2019-01-10T06:34:54.531Z,25.70
2019-01-10T06:37:26.061Z,25.17
2019-01-10T06:39:57.357Z,22.53
2019-01-10T06:42:28.691Z,25.13
2019-01-10T06:45:00.025Z,26.37
2019-01-10T06:47:31.439Z,24.30
2019-01-10T06:50:02.802Z,31.50
2019-01-10T06:52:34.182Z,30.90
2019-01-10T06:55:06.286Z,30.73
2019-01-10T06:57:37.552Z,25.97
2019-01-10T07:00:15.434Z,30.87
2019-01-10T07:02:47.448Z,18.73
2019-01-10T07:05:18.776Z,32.40
2019-01-10T07:07:56.225Z,31.37
2019-01-10T07:10:29.179Z,32.63
2019-01-10T07:13:01.023Z,26.97
2019-01-10T07:15:32.424Z,23.60
2019-01-10T07:18:03.750Z,23.80
2019-01-10T07:20:42.679Z,35.47
2019-01-10T07:23:14.336Z,34.30
2019-01-10T07:25:45.956Z,38.73
2019-01-10T07:28:27.415Z,34.43
2019-01-10T07:30:59.651Z,32.77
2019-01-10T07:33:36.267Z,35.43
2019-01-10T07:36:07.650Z,33.70
2019-01-10T07:38:40.868Z,35.63
2019-01-10T07:41:12.300Z,36.10
2019-01-10T07:43:44.374Z,38.73
2019-01-10T07:46:15.859Z,35.63
2019-01-10T07:48:49.978Z,32.17
2019-01-10T07:51:23.093Z,31.43
2019-01-10T07:53:54.761Z,29.60
2019-01-10T07:56:26.279Z,31.27
2019-01-10T07:58:57.808Z,35.17
2019-01-10T08:01:29.351Z,36.33
2019-01-10T08:04:06.264Z,47.70
2019-01-10T08:06:37.628Z,36.17
2019-01-10T08:09:10.213Z,35.47
2019-01-10T08:11:41.584Z,26.03
2019-01-10T08:14:13.543Z,38.30
2019-01-10T08:16:45.412Z,44.17
2019-01-10T08:19:16.855Z,35.97
2019-01-10T08:21:48.641Z,31.07
2019-01-10T08:24:20.760Z,31.13
2019-01-10T08:26:52.438Z,32.80
2019-01-10T08:29:23.814Z,31.07
2019-01-10T08:31:56.796Z,31.10
2019-01-10T08:34:28.618Z,33.60
2019-01-10T08:37:00.024Z,34.13
2019-01-10T08:39:31.274Z,31.13
2019-01-10T08:42:02.970Z,27.90
2019-01-10T08:44:34.579Z,27.97
2019-01-10T08:47:06.025Z,37.17
2019-01-10T08:49:37.678Z,39.87
2019-01-10T08:52:09.278Z,34.10
2019-01-10T08:54:41.174Z,31.53
2019-01-10T08:57:12.922Z,33.70
2019-01-10T08:59:44.553Z,30.50
2019-01-10T09:02:17.022Z,30.53
2019-01-10T09:04:48.722Z,31.20
2019-01-10T09:07:20.444Z,32.67
2019-01-10T09:09:52.033Z,33.27
2019-01-10T09:12:23.545Z,32.70
2019-01-10T09:14:54.797Z,31.73
2019-01-10T09:17:26.512Z,30.87
2019-01-10T09:19:58.019Z,32.60
2019-01-10T09:22:29.453Z,34.97
2019-01-10T09:25:01.009Z,35.23
2019-01-10T09:27:32.544Z,33.97
2019-01-10T09:30:04.578Z,38.37
2019-01-10T09:32:36.098Z,37.53
2019-01-10T09:35:07.818Z,31.97
2019-01-10T09:37:39.086Z,36.67
2019-01-10T09:40:14.131Z,34.17
2019-01-10T09:42:46.051Z,39.70
2019-01-10T09:45:27.918Z,35.87
2019-01-10T09:47:59.603Z,38.40
2019-01-10T09:50:31.119Z,39.47
2019-01-10T09:53:02.788Z,37.03
2019-01-10T09:55:34.131Z,39.03
2019-01-10T09:58:05.617Z,37.17
2019-01-10T10:00:37.119Z,38.33
2019-01-10T10:03:10.317Z,38.60
2019-01-10T10:05:41.887Z,33.93
2019-01-10T10:08:13.584Z,34.00
2019-01-10T10:10:45.558Z,38.47
2019-01-10T10:13:17.058Z,35.70
2019-01-10T10:15:52.796Z,35.70
2019-01-10T10:18:22.018Z,34.47
2019-01-10T10:20:53.733Z,35.10
2019-01-10T10:23:26.873Z,35.40
2019-01-10T10:25:58.693Z,39.63
2019-01-10T10:28:30.137Z,39.13
2019-01-10T10:31:01.613Z,34.63
2019-01-10T10:33:40.908Z,36.57
2019-01-10T10:36:12.499Z,36.20
2019-01-10T10:38:44.214Z,34.73
2019-01-10T10:41:15.865Z,38.50
2019-01-10T10:43:47.327Z,37.63
2019-01-10T10:46:18.725Z,33.90
2019-01-10T10:48:50.498Z,37.87
2019-01-10T10:51:21.991Z,33.83
2019-01-10T10:53:54.059Z,34.20
2019-01-10T10:56:25.586Z,33.03
2019-01-10T10:58:56.948Z,35.50
2019-01-10T11:01:28.350Z,32.30
2019-01-10T11:04:05.845Z,34.90
2019-01-10T11:06:37.299Z,30.97
2019-01-10T11:09:10.143Z,34.87
2019-01-10T11:11:41.649Z,33.47
2019-01-10T11:14:13.691Z,29.63
2019-01-10T11:16:45.525Z,34.07
2019-01-10T11:19:16.936Z,34.53
2019-01-10T11:21:48.498Z,34.77
2019-01-10T11:24:25.448Z,31.47
2019-01-10T11:26:58.132Z,30.80
2019-01-10T11:29:29.455Z,33.60
2019-01-10T11:32:00.842Z,35.47
2019-01-10T11:34:32.521Z,35.80
2019-01-10T11:37:04.224Z,34.03
2019-01-10T11:39:35.987Z,32.33
2019-01-10T11:42:07.513Z,33.93
2019-01-10T11:44:38.896Z,36.03
2019-01-10T11:47:10.353Z,32.83
2019-01-10T11:49:41.857Z,38.80
2019-01-10T11:52:13.869Z,71.70
2019-01-10T11:54:51.282Z,48.97
2019-01-10T11:57:22.791Z,41.37
2019-01-10T11:59:54.798Z,32.30
2019-01-10T12:02:26.292Z,33.50
2019-01-10T12:04:57.639Z,35.60
2019-01-10T12:07:29.148Z,35.17
2019-01-10T12:10:00.789Z,33.77
2019-01-10T12:12:32.960Z,36.43
2019-01-10T12:15:04.917Z,33.33
2019-01-10T12:17:36.369Z,35.03
2019-01-10T12:20:10.023Z,34.13
2019-01-10T12:22:47.140Z,35.30
2019-01-10T12:25:18.892Z,36.07
2019-01-10T12:27:50.703Z,40.00
2019-01-10T12:30:24.001Z,37.47
2019-01-10T12:32:55.996Z,36.20
2019-01-10T12:35:27.602Z,38.03
2019-01-10T12:37:59.104Z,35.67
2019-01-10T12:40:31.386Z,39.17
2019-01-10T12:43:03.560Z,37.13
2019-01-10T12:45:35.086Z,39.23
2019-01-10T12:48:07.670Z,35.57
2019-01-10T12:50:42.980Z,36.63
2019-01-10T12:53:14.712Z,38.23
2019-01-10T12:55:46.255Z,36.67
2019-01-10T12:58:17.721Z,36.33
2019-01-10T13:00:49.228Z,34.73
2019-01-10T13:03:21.244Z,36.03
2019-01-10T13:05:53.392Z,36.83
2019-01-10T13:08:24.991Z,34.70
2019-01-10T13:10:56.223Z,33.43
2019-01-10T13:13:28.142Z,37.43
2019-01-10T13:16:00.213Z,38.20
2019-01-10T13:18:32.342Z,36.00
2019-01-10T13:21:03.911Z,36.03
2019-01-10T13:23:35.767Z,36.43
2019-01-10T13:26:07.690Z,39.00
2019-01-10T13:28:39.084Z,34.00
2019-01-10T13:31:10.654Z,33.17
2019-01-10T13:33:48.315Z,36.13
2019-01-10T13:36:19.807Z,37.10
2019-01-10T13:38:51.399Z,35.87
2019-01-10T13:41:22.803Z,36.77
2019-01-10T13:43:58.535Z,38.23
2019-01-10T13:46:29.843Z,34.60
2019-01-10T13:49:03.055Z,32.23
2019-01-10T13:51:34.443Z,35.43
2019-01-10T13:54:06.713Z,34.23
2019-01-10T13:56:38.217Z,37.13
2019-01-10T14:01:42.668Z,33.83
2019-01-10T14:04:19.531Z,35.93
2019-01-10T14:06:51.536Z,36.47
2019-01-10T14:09:22.981Z,36.87
2019-01-10T14:11:54.830Z,40.93
2019-01-10T14:14:26.405Z,36.07
2019-01-10T14:17:01.649Z,37.13
2019-01-10T14:19:31.242Z,38.87
2019-01-10T14:22:02.779Z,34.70
2019-01-10T14:24:34.596Z,37.83
2019-01-10T14:27:05.883Z,37.20
2019-01-10T14:29:39.057Z,37.57
2019-01-10T14:32:10.603Z,39.87
2019-01-10T14:34:42.648Z,40.03
2019-01-10T14:37:14.277Z,38.50
2019-01-10T14:39:45.677Z,42.77
2019-01-10T14:42:17.151Z,38.63
2019-01-10T14:44:48.726Z,34.53
2019-01-10T14:47:20.418Z,38.27
2019-01-10T14:49:52.261Z,35.73
2019-01-10T14:52:23.717Z,38.07
2019-01-10T14:54:55.282Z,38.27
2019-01-10T14:57:26.630Z,39.37
2019-01-10T14:59:58.083Z,35.97
2019-01-10T15:02:29.657Z,43.07
2019-01-10T15:05:01.187Z,36.80
2019-01-10T15:07:32.843Z,38.97
2019-01-10T15:10:04.875Z,41.13
2019-01-10T15:12:36.836Z,43.17
2019-01-10T15:15:10.894Z,44.10
2019-01-10T15:17:44.156Z,42.43
2019-01-10T15:20:27.885Z,40.57
2019-01-10T15:22:59.290Z,37.40
2019-01-10T15:25:30.848Z,45.87
2019-01-10T15:28:02.247Z,46.17
2019-01-10T15:30:33.743Z,45.50
2019-01-10T15:33:05.476Z,41.77
2019-01-10T15:35:36.817Z,48.80
2019-01-10T15:38:13.721Z,54.80
2019-01-10T15:40:41.666Z,51.83
2019-01-10T15:43:18.829Z,66.97
2019-01-10T15:45:50.315Z,54.73
2019-01-10T15:48:21.837Z,48.40
2019-01-10T15:50:53.713Z,39.73
2019-01-10T15:53:25.657Z,42.73
2019-01-10T15:55:57.296Z,49.77
2019-01-10T15:58:28.661Z,80.90
2019-01-10T16:01:00.272Z,84.47
2019-01-10T16:03:31.892Z,66.70
2019-01-10T16:06:03.673Z,101.97
2019-01-10T16:08:35.230Z,79.93
2019-01-10T16:11:07.231Z,73.50
2019-01-10T16:13:39.013Z,69.53
2019-01-10T16:16:10.634Z,100.93
2019-01-10T16:18:42.243Z,87.97
2019-01-10T16:21:13.709Z,64.83
2019-01-10T16:23:46.447Z,66.27
2019-01-10T16:26:17.912Z,51.87
2019-01-10T16:28:49.481Z,58.63
2019-01-10T16:31:22.245Z,48.07
2019-01-10T16:33:54.165Z,53.87
2019-01-10T16:36:26.996Z,57.63
2019-01-10T16:38:58.750Z,56.00
2019-01-10T16:41:30.207Z,60.60
2019-01-10T16:44:09.344Z,60.27
2019-01-10T16:46:40.992Z,67.80
2019-01-10T16:49:12.648Z,63.40
2019-01-10T16:51:44.686Z,69.33
2019-01-10T16:54:16.567Z,70.87
2019-01-10T16:56:48.225Z,70.03
2019-01-10T16:59:19.802Z,74.50
2019-01-10T17:01:51.440Z,62.27
2019-01-10T17:04:24.205Z,58.23
2019-01-10T17:06:56.006Z,56.63
2019-01-10T17:09:27.509Z,56.17
2019-01-10T17:11:59.161Z,65.90
2019-01-10T17:14:30.622Z,59.53
2019-01-10T17:17:01.993Z,58.13
2019-01-10T17:19:33.727Z,58.77
2019-01-10T17:22:05.458Z,53.83
2019-01-10T17:24:37.243Z,54.50
2019-01-10T17:27:09.006Z,51.87
2019-01-10T17:29:40.340Z,51.47
2019-01-10T17:32:11.823Z,56.97
2019-01-10T17:34:43.825Z,60.80
2019-01-10T17:37:15.168Z,57.90
2019-01-10T17:39:46.961Z,57.53
2019-01-10T17:42:18.598Z,56.50
2019-01-10T17:44:50.313Z,58.17
2019-01-10T17:47:21.832Z,57.53
2019-01-10T17:49:53.389Z,62.80
2019-01-10T17:52:25.124Z,59.60
2019-01-10T17:54:56.820Z,64.10
2019-01-10T17:57:28.328Z,60.33
2019-01-10T17:59:59.825Z,61.10
2019-01-10T18:02:31.200Z,61.33
2019-01-10T18:05:02.704Z,68.00
2019-01-10T18:07:34.253Z,66.20
2019-01-10T18:10:07.486Z,63.00
2019-01-10T18:12:38.947Z,57.27
2019-01-10T18:15:11.832Z,56.93
2019-01-10T18:17:49.990Z,52.97
2019-01-10T18:20:22.457Z,53.93
2019-01-10T18:22:54.718Z,49.10
2019-01-10T18:25:26.165Z,48.80
2019-01-10T18:27:57.717Z,49.70
2019-01-10T18:30:29.248Z,53.57
2019-01-10T18:33:01.104Z,55.03
2019-01-10T18:35:32.684Z,60.23
2019-01-10T18:38:04.255Z,63.27
2019-01-10T18:40:35.698Z,65.00
2019-01-10T18:43:07.515Z,71.30
2019-01-10T18:45:38.926Z,67.97
2019-01-10T18:48:10.482Z,77.40
2019-01-10T18:50:41.877Z,80.23
2019-01-10T18:53:13.508Z,74.67
2019-01-10T18:55:45.405Z,78.83
2019-01-10T18:58:17.127Z,69.20
2019-01-10T19:00:48.658Z,70.80
2019-01-10T19:03:20.331Z,61.93
2019-01-10T19:05:51.990Z,64.13
2019-01-10T19:08:24.358Z,69.07
2019-01-10T19:10:55.763Z,65.27
2019-01-10T19:13:27.154Z,67.00
2019-01-10T19:15:58.679Z,58.00
2019-01-10T19:18:29.951Z,60.97
2019-01-10T19:21:01.280Z,56.97
2019-01-10T19:23:32.786Z,59.67
2019-01-10T19:26:04.238Z,61.40
2019-01-10T19:28:35.530Z,61.90
2019-01-10T19:31:07.169Z,58.60
2019-01-10T19:33:38.756Z,56.57
2019-01-10T19:36:10.301Z,62.80
2019-01-10T19:38:41.857Z,56.63
2019-01-10T19:41:13.368Z,60.17
2019-01-10T19:43:45.404Z,60.80
2019-01-10T19:46:16.963Z,60.90
2019-01-10T19:48:48.694Z,64.10
2019-01-10T19:51:20.498Z,66.03
2019-01-10T19:53:52.135Z,64.67
2019-01-10T19:56:23.500Z,65.80
2019-01-10T19:58:54.881Z,67.40
2019-01-10T20:01:27.805Z,71.60
2019-01-10T20:04:04.706Z,68.80
2019-01-10T20:06:36.278Z,69.70
2019-01-10T20:09:09.579Z,78.03
2019-01-10T20:11:41.153Z,74.90
2019-01-10T20:14:12.809Z,71.70
2019-01-10T20:16:44.724Z,62.17
2019-01-10T20:19:16.889Z,64.40
2019-01-10T20:21:48.385Z,64.57
2019-01-10T20:24:20.533Z,65.63
2019-01-10T20:26:52.751Z,64.37
2019-01-10T20:29:24.114Z,69.63
2019-01-10T20:31:56.611Z,68.30
2019-01-10T20:34:28.312Z,71.93
2019-01-10T20:36:59.655Z,68.17
2019-01-10T20:39:31.109Z,75.93
2019-01-10T20:42:02.836Z,77.07
2019-01-10T20:44:34.549Z,78.03
2019-01-10T20:47:06.253Z,81.87
2019-01-10T20:49:38.598Z,86.07
2019-01-10T20:52:09.984Z,88.43
2019-01-10T20:54:41.788Z,85.03
2019-01-10T20:57:13.312Z,82.47
2019-01-10T20:59:45.257Z,88.23
2019-01-10T21:02:17.113Z,84.37
2019-01-10T21:04:48.688Z,80.20
2019-01-10T21:07:21.301Z,86.70
2019-01-10T21:09:53.814Z,75.63
2019-01-10T21:12:25.767Z,72.37
2019-01-10T21:14:57.971Z,83.53
2019-01-10T21:17:29.577Z,91.67
2019-01-10T21:20:01.262Z,91.10
2019-01-10T21:22:32.857Z,95.73
2019-01-10T21:25:06.362Z,94.23
2019-01-10T21:27:37.531Z,101.93
2019-01-10T21:30:11.503Z,94.87
2019-01-10T21:32:49.816Z,95.23
2019-01-10T21:35:21.570Z,96.40
2019-01-10T21:37:53.279Z,97.07
2019-01-10T21:40:25.175Z,96.50
2019-01-10T21:42:57.722Z,98.27
2019-01-10T21:45:29.278Z,101.97
2019-01-10T21:48:00.927Z,93.83
2019-01-10T21:50:33.520Z,97.57
2019-01-10T21:53:10.596Z,103.43
2019-01-10T21:55:42.042Z,99.33
2019-01-10T21:58:13.945Z,104.20
2019-01-10T22:00:45.616Z,102.00
2019-01-10T22:03:17.644Z,108.53
2019-01-10T22:05:49.387Z,102.67
2019-01-10T22:08:21.142Z,104.73
2019-01-10T22:10:52.823Z,116.07
2019-01-10T22:13:24.754Z,107.07
2019-01-10T22:15:56.236Z,105.73
2019-01-10T22:18:28.604Z,101.03
2019-01-10T22:21:00.880Z,109.23
2019-01-10T22:23:32.323Z,105.17
2019-01-10T22:26:04.920Z,111.80
2019-01-10T22:28:36.565Z,104.97
2019-01-10T22:31:07.944Z,111.07
2019-01-10T22:33:39.516Z,108.73
2019-01-10T22:36:11.170Z,107.37
2019-01-10T22:38:42.924Z,111.80
2019-01-10T22:41:14.662Z,113.43
2019-01-10T22:43:47.166Z,116.47
2019-01-10T22:46:18.579Z,108.17
2019-01-10T22:48:50.124Z,112.90
2019-01-10T22:51:21.781Z,107.90
2019-01-10T22:53:53.681Z,106.60
2019-01-10T22:56:25.172Z,106.57
2019-01-10T22:58:56.810Z,109.40
2019-01-10T23:01:39.693Z,105.07
2019-01-10T23:04:13.863Z,109.93
2019-01-10T23:06:45.803Z,97.03
2019-01-10T23:09:17.429Z,101.00
2019-01-10T23:11:49.042Z,99.10
2019-01-10T23:14:20.831Z,100.03
2019-01-10T23:16:52.811Z,106.70
2019-01-10T23:19:24.068Z,94.33
2019-01-10T23:21:55.572Z,97.60
2019-01-10T23:24:27.233Z,97.97
2019-01-10T23:26:58.812Z,93.00
2019-01-10T23:29:34.030Z,100.80
2019-01-10T23:32:13.650Z,103.93
2019-01-10T23:34:53.796Z,99.47
2019-01-10T23:37:28.449Z,98.33
2019-01-10T23:39:59.842Z,100.93
2019-01-10T23:42:31.689Z,97.23
2019-01-10T23:45:03.110Z,109.70
2019-01-10T23:47:34.335Z,97.30
2019-01-10T23:50:06.509Z,96.97
2019-01-10T23:52:38.534Z,93.60
2019-01-10T23:55:10.084Z,91.43
2019-01-10T23:57:41.618Z,83.37
